Time;durP1;ratioP1;P1;durP2;ratioP2;P2;SDS_P1;SDS_P2;PMS_P1;PMS_P2;Temp;Humidity;BMP_temperature;BMP_pressure;BME280_temperature;BME280_humidity;BME280_pressure;Samples;Min_cycle;Max_cycle;Signal;HPM_P1;HPM_P2
2021/06/11 00:00:54;;;;;;;4.72;4.32;;;;;;;17.96;56.00;101216.09;5027678;28;20103;-85
2021/06/11 00:03:21;;;;;;;6.18;4.97;;;;;;;17.94;56.31;101217.06;5032309;28;21016;-84
2021/06/11 00:05:55;;;;;;;4.53;4.10;;;;;;;17.91;56.38;101215.34;5012192;28;20053;-85
2021/06/11 00:08:21;;;;;;;7.05;5.10;;;;;;;17.86;56.80;101215.50;5073889;28;20049;-84
2021/06/11 00:10:48;;;;;;;6.90;5.35;;;;;;;17.81;57.22;101217.41;5042101;28;20072;-85
2021/06/11 00:13:20;;;;;;;4.65;4.28;;;;;;;17.78;57.52;101217.53;5057040;28;20130;-84
2021/06/11 00:15:49;;;;;;;3.92;3.63;;;;;;;17.73;57.76;101216.78;5027583;28;20045;-85
2021/06/11 00:18:17;;;;;;;4.70;4.15;;;;;;;17.69;58.09;101218.66;5022591;28;20045;-85
2021/06/11 00:20:43;;;;;;;5.85;5.25;;;;;;;17.63;58.38;101225.91;5023295;28;20088;-85
2021/06/11 00:23:10;;;;;;;5.22;4.57;;;;;;;17.54;58.88;101224.38;5042843;28;20065;-86
2021/06/11 00:25:43;;;;;;;4.47;4.07;;;;;;;17.47;59.19;101223.72;5026067;28;21950;-85
2021/06/11 00:28:14;;;;;;;5.07;4.65;;;;;;;17.40;59.70;101229.22;5015928;28;20053;-85
2021/06/11 00:30:45;;;;;;;5.75;5.32;;;;;;;17.32;60.32;101227.63;5020596;28;20049;-86
2021/06/11 00:33:14;;;;;;;5.28;4.80;;;;;;;17.26;60.86;101221.66;5043584;28;20041;-86
2021/06/11 00:35:41;;;;;;;6.82;5.07;;;;;;;17.20;60.61;101228.00;5029164;28;20052;-85
2021/06/11 00:38:08;;;;;;;4.97;4.57;;;;;;;17.16;60.82;101229.84;5077385;28;20067;-86
2021/06/11 00:40:37;;;;;;;4.82;4.40;;;;;;;17.15;60.67;101220.16;5043000;28;20056;-84
2021/06/11 00:43:11;;;;;;;6.03;5.30;;;;;;;17.12;60.65;101220.25;5043062;28;20041;-85
2021/06/11 00:45:39;;;;;;;3.65;3.35;;;;;;;17.08;60.59;101228.31;5027947;28;20484;-84
2021/06/11 00:48:06;;;;;;;6.38;4.45;;;;;;;17.02;60.66;101219.63;5039560;28;20847;-85
2021/06/11 00:50:35;;;;;;;5.60;4.00;;;;;;;17.00;60.88;101224.09;5040398;28;20052;-85
2021/06/11 00:53:10;;;;;;;4.80;4.32;;;;;;;16.95;61.29;101228.66;5047961;28;20049;-85
2021/06/11 00:55:44;;;;;;;4.80;4.40;;;;;;;16.91;61.18;101219.06;5042583;28;20046;-85
2021/06/11 00:58:16;;;;;;;5.50;4.50;;;;;;;16.87;61.33;101220.88;5011196;28;20072;-86
2021/06/11 01:00:45;;;;;;;5.45;4.75;;;;;;;16.83;61.66;101223.63;5040353;28;20692;-83
2021/06/11 01:03:12;;;;;;;4.18;3.65;;;;;;;16.79;61.71;101222.88;5002658;28;20049;-85
2021/06/11 01:05:40;;;;;;;4.07;3.78;;;;;;;16.78;61.79;101221.13;5047961;28;20060;-85
2021/06/11 01:08:11;;;;;;;5.43;4.55;;;;;;;16.75;62.26;101222.97;5017189;28;20070;-86
2021/06/11 01:10:37;;;;;;;3.58;3.35;;;;;;;16.72;62.28;101225.72;5024057;28;20484;-86
2021/06/11 01:13:04;;;;;;;4.72;4.32;;;;;;;16.68;62.57;101220.47;5033293;28;20052;-85
2021/06/11 01:15:32;;;;;;;4.45;4.05;;;;;;;16.68;62.57;101222.28;4992622;28;20049;-85
2021/06/11 01:17:59;;;;;;;5.18;4.57;;;;;;;16.68;62.76;101223.13;5023277;28;20045;-85
2021/06/11 01:20:32;;;;;;;5.82;3.78;;;;;;;16.67;62.94;101221.41;4987861;28;20057;-85
2021/06/11 01:23:50;;;;;;;5.03;4.37;;;;;;;16.65;63.30;101220.56;5024012;28;20046;-84
2021/06/11 01:26:37;;;;;;;3.45;3.25;;;;;;;16.61;63.13;101215.38;5021784;28;20050;-84
2021/06/11 01:29:07;;;;;;;;;;;;;;;16.54;63.89;101204.09;5058930;28;20054;-86
2021/06/11 01:31:42;;;;;;;4.15;3.60;;;;;;;16.51;63.46;101210.34;4997643;28;19929;-85
2021/06/11 01:34:16;;;;;;;4.78;4.18;;;;;;;16.49;63.80;101211.28;5041273;28;20096;-86
2021/06/11 01:36:57;;;;;;;4.25;3.88;;;;;;;16.48;64.78;101204.28;5022982;28;20061;-85
2021/06/11 01:39:27;;;;;;;5.28;3.95;;;;;;;16.50;64.41;101210.38;5019108;28;20064;-85
2021/06/11 01:41:58;;;;;;;5.40;4.47;;;;;;;16.50;64.52;101211.25;5023004;28;20041;-86
2021/06/11 01:44:26;;;;;;;5.35;4.85;;;;;;;16.54;64.35;101212.03;5039915;28;20049;-84
2021/06/11 01:46:58;;;;;;;5.60;4.70;;;;;;;16.57;64.75;101200.50;5030119;28;20073;-85
2021/06/11 01:49:27;;;;;;;7.00;4.47;;;;;;;16.56;64.71;101204.94;5035990;28;20150;-85
2021/06/11 01:52:00;;;;;;;5.13;4.32;;;;;;;16.52;64.44;101198.00;5058465;28;20092;-86
2021/06/11 01:54:29;;;;;;;4.85;4.40;;;;;;;16.49;64.68;101200.69;5020517;28;20844;-84
2021/06/11 01:56:57;;;;;;;5.38;4.57;;;;;;;16.45;64.78;101194.66;5027109;28;20161;-84
2021/06/11 01:59:25;;;;;;;5.03;4.53;;;;;;;16.42;64.97;101200.00;5037573;28;20107;-85
2021/06/11 02:01:54;;;;;;;4.25;3.95;;;;;;;16.41;64.83;101200.03;5003920;28;20049;-85
2021/06/11 02:04:22;;;;;;;4.90;4.50;;;;;;;16.38;65.06;101199.19;5025430;28;20060;-84
2021/06/11 02:06:51;;;;;;;4.82;4.22;;;;;;;16.38;64.68;101201.84;5053631;28;20195;-86
2021/06/11 02:09:19;;;;;;;6.13;4.00;;;;;;;16.40;64.83;101200.94;5037604;28;20068;-85
2021/06/11 02:11:45;;;;;;;5.72;4.68;;;;;;;16.39;64.85;101210.66;5027244;28;20056;-85
2021/06/11 02:14:21;;;;;;;4.70;4.30;;;;;;;16.38;64.68;101198.34;5021916;28;20052;-85
2021/06/11 02:16:49;;;;;;;4.57;4.25;;;;;;;16.38;64.68;101203.63;5008001;28;20513;-85
2021/06/11 02:19:16;;;;;;;5.07;3.85;;;;;;;16.35;64.49;101195.78;5015514;28;20053;-84
2021/06/11 02:21:47;;;;;;;5.43;4.65;;;;;;;16.29;64.51;101196.78;5058056;28;20071;-85
2021/06/11 02:24:13;;;;;;;6.45;4.50;;;;;;;16.27;64.63;101200.34;5040166;28;20053;-85
2021/06/11 02:26:43;;;;;;;5.18;4.68;;;;;;;16.26;65.02;101196.00;5033853;28;20045;-85
2021/06/11 02:29:12;;;;;;;5.13;4.65;;;;;;;16.23;65.13;101199.59;5038418;28;20125;-86
2021/06/11 02:31:40;;;;;;;6.75;4.43;;;;;;;16.21;65.42;101196.09;5070538;28;20135;-85
2021/06/11 02:34:07;;;;;;;4.15;3.75;;;;;;;16.19;65.43;101184.69;5010619;28;20111;-85
2021/06/11 02:36:34;;;;;;;5.03;4.55;;;;;;;16.17;65.96;101195.31;5004099;28;20053;-87
2021/06/11 02:39:01;;;;;;;4.35;3.95;;;;;;;16.13;65.99;101188.34;4988260;28;20048;-85
2021/06/11 02:41:38;;;;;;;8.73;4.85;;;;;;;16.12;65.91;101193.69;4973083;28;20060;-84
2021/06/11 02:44:08;;;;;;;6.38;4.72;;;;;;;16.12;65.99;101185.75;4985176;28;20054;-85
2021/06/11 02:46:43;;;;;;;5.22;4.72;;;;;;;16.11;65.63;101198.06;4987680;28;20656;-86
2021/06/11 02:49:23;;;;;;;5.53;5.00;;;;;;;16.10;65.96;101187.56;4966482;28;21043;-86
2021/06/11 02:51:54;;;;;;;8.63;5.15;;;;;;;16.07;66.26;101199.06;5017434;28;20133;-86
2021/06/11 02:54:31;;;;;;;5.50;5.00;;;;;;;16.00;67.20;101193.06;5001129;28;20056;-84
2021/06/11 02:57:07;;;;;;;6.03;4.72;;;;;;;15.96;68.12;101190.53;5016649;28;20049;-85
2021/06/11 02:59:40;;;;;;;4.88;4.47;;;;;;;15.87;69.12;101195.09;4982250;28;20066;-85
2021/06/11 03:02:14;;;;;;;5.60;5.03;;;;;;;15.80;69.03;101192.59;5014289;28;20687;-85
2021/06/11 03:04:44;;;;;;;6.97;5.25;;;;;;;15.73;69.74;101183.94;5015681;28;20678;-86
2021/06/11 03:07:22;;;;;;;6.80;4.97;;;;;;;15.66;70.42;101190.28;4998422;28;20561;-85
2021/06/11 03:09:52;;;;;;;5.30;4.80;;;;;;;15.60;70.21;101187.75;5015592;28;20100;-86
2021/06/11 03:12:20;;;;;;;5.70;5.03;;;;;;;15.54;70.37;101186.13;4989028;28;20050;-85
2021/06/11 03:14:53;;;;;;;9.63;4.88;;;;;;;15.51;70.40;101191.44;4992087;28;20116;-84
2021/06/11 03:17:27;;;;;;;5.65;4.93;;;;;;;15.49;70.39;101194.13;5001719;28;20057;-85
2021/06/11 03:19:57;;;;;;;;;;;;;;;15.46;70.63;101190.69;4967753;28;20053;-85
2021/06/11 03:23:00;;;;;;;4.97;4.35;;;;;;;15.42;70.54;101195.16;5020331;28;19925;-85
2021/06/11 03:25:51;;;;;;;5.43;4.93;;;;;;;15.39;70.09;101189.94;4975854;28;20053;-84
2021/06/11 03:28:49;;;;;;;6.18;4.70;;;;;;;15.36;70.26;101193.50;4985856;28;20046;-86
2021/06/11 03:31:22;;;;;;;6.97;5.03;;;;;;;15.36;69.99;101190.88;4980904;28;20126;-84
2021/06/11 03:33:55;;;;;;;5.95;4.05;;;;;;;15.36;70.11;101192.66;4985505;28;20048;-85
2021/06/11 03:36:38;;;;;;;7.70;4.80;;;;;;;15.37;70.36;101191.75;5017944;28;20480;-86
2021/06/11 03:39:16;;;;;;;6.90;5.33;;;;;;;15.36;70.48;101198.78;5010832;28;20340;-86
2021/06/11 03:41:44;;;;;;;7.05;4.50;;;;;;;15.37;70.38;101195.25;5005757;28;20069;-86
2021/06/11 03:44:13;;;;;;;6.95;6.25;;;;;;;15.38;70.25;101190.84;5022816;28;20061;-85
2021/06/11 03:46:45;;;;;;;5.32;4.72;;;;;;;15.39;70.09;101195.22;5039729;28;20057;-85
2021/06/11 03:49:12;;;;;;;6.72;5.68;;;;;;;15.39;70.20;101184.66;5032208;28;20042;-85
2021/06/11 03:51:44;;;;;;;5.30;4.80;;;;;;;15.43;70.10;101182.84;5059126;28;20033;-84
2021/06/11 03:54:14;;;;;;;6.20;5.15;;;;;;;15.43;69.99;101186.34;5026948;28;20660;-85
2021/06/11 03:56:42;;;;;;;7.35;4.35;;;;;;;15.42;70.03;101181.94;5056954;28;20045;-84
2021/06/11 03:59:28;;;;;;;11.02;6.20;;;;;;;15.44;70.37;101184.59;5046360;28;20045;-85
2021/06/11 04:02:03;;;;;;;5.53;4.97;;;;;;;15.46;70.39;101191.56;5050228;28;20071;-85
2021/06/11 04:04:43;;;;;;;6.05;4.68;;;;;;;15.49;70.08;101194.13;5033861;28;20041;-84
2021/06/11 04:07:36;;;;;;;6.97;5.07;;;;;;;15.53;69.91;101187.03;5029520;28;20107;-85
2021/06/11 04:10:28;;;;;;;6.10;5.40;;;;;;;15.58;69.83;101184.28;5029981;28;20037;-86
2021/06/11 04:13:08;;;;;;;5.82;4.90;;;;;;;15.64;69.58;101184.16;5039480;28;20049;-84
2021/06/11 04:15:43;;;;;;;8.52;4.93;;;;;;;15.70;69.11;101184.03;5061671;28;20069;-85
2021/06/11 04:18:14;;;;;;;7.25;5.00;;;;;;;15.75;69.01;101184.78;5055565;28;20053;-84
2021/06/11 04:20:44;;;;;;;5.97;4.45;;;;;;;15.79;69.05;101180.31;5039247;28;20081;-84
2021/06/11 04:23:13;;;;;;;6.80;5.60;;;;;;;15.81;68.75;101184.69;5014479;28;20372;-85
2021/06/11 04:25:42;;;;;;;7.43;5.03;;;;;;;15.81;68.79;101178.53;5038487;28;20037;-85
2021/06/11 04:28:10;;;;;;;6.72;4.78;;;;;;;15.83;68.72;101177.59;5042548;28;20045;-85
2021/06/11 04:30:38;;;;;;;7.40;4.53;;;;;;;15.90;68.36;101177.47;5054011;28;20246;-85
2021/06/11 04:33:25;;;;;;;6.40;4.50;;;;;;;15.99;68.13;101177.25;5036880;28;20065;-86
2021/06/11 04:35:52;;;;;;;7.60;5.60;;;;;;;16.07;67.96;101179.72;5041803;28;20053;-85
2021/06/11 04:38:19;;;;;;;6.95;4.88;;;;;;;16.15;67.76;101183.03;4969638;28;20120;-85
2021/06/11 04:40:46;;;;;;;4.47;3.80;;;;;;;16.23;67.38;101180.22;4986153;28;20077;-87
2021/06/11 04:43:13;;;;;;;5.43;4.95;;;;;;;16.30;67.30;101189.75;4981424;28;20057;-86
2021/06/11 04:45:39;;;;;;;5.22;4.72;;;;;;;16.31;67.32;101176.47;5000149;28;20046;-86
2021/06/11 04:48:12;;;;;;;8.18;5.40;;;;;;;16.32;67.36;101178.22;5004248;28;20105;-86
2021/06/11 04:50:38;;;;;;;6.68;4.53;;;;;;;16.36;67.07;101179.00;4992640;28;20084;-85
2021/06/11 04:53:06;;;;;;;12.05;3.95;;;;;;;16.35;67.12;101172.00;4983954;28;21654;-85
2021/06/11 04:55:36;;;;;;;3.83;3.50;;;;;;;16.38;67.24;101179.84;4984730;28;21240;-85
2021/06/11 04:58:03;;;;;;;9.10;4.13;;;;;;;16.44;66.80;101178.81;5003272;28;20908;-86
2021/06/11 05:00:33;;;;;;;4.55;4.07;;;;;;;16.49;66.83;101176.91;4987262;28;20054;-86
2021/06/11 05:03:00;;;;;;;4.55;4.15;;;;;;;16.54;66.28;101180.31;4984927;28;20485;-85
2021/06/11 05:05:26;;;;;;;5.53;3.90;;;;;;;16.62;66.21;101174.84;4973069;28;20078;-85
2021/06/11 05:07:54;;;;;;;5.40;4.45;;;;;;;16.68;65.99;101174.69;4982330;28;20038;-86
2021/06/11 05:10:20;;;;;;;9.57;4.07;;;;;;;16.77;65.93;101171.78;4997686;28;20133;-87
2021/06/11 05:12:46;;;;;;;4.35;3.92;;;;;;;16.86;65.31;101170.69;5003900;28;20477;-86
2021/06/11 05:15:15;;;;;;;4.05;3.58;;;;;;;16.92;65.11;101167.03;5016314;28;20057;-86
2021/06/11 05:17:44;;;;;;;3.80;3.50;;;;;;;17.00;64.84;101171.22;4974335;28;20076;-84
2021/06/11 05:20:11;;;;;;;3.97;3.67;;;;;;;17.07;64.57;101166.63;4984485;28;20054;-84
2021/06/11 05:22:37;;;;;;;5.03;4.10;;;;;;;17.14;64.35;101168.19;5001161;28;20046;-85
2021/06/11 05:25:06;;;;;;;5.88;4.35;;;;;;;17.23;64.05;101172.34;4974203;28;20061;-85
2021/06/11 05:27:38;;;;;;;5.55;4.00;;;;;;;17.32;63.83;101169.41;4981642;28;20061;-85
2021/06/11 05:30:07;;;;;;;5.85;4.60;;;;;;;17.39;63.64;101161.31;5001503;28;21318;-88
2021/06/11 05:32:34;;;;;;;6.78;5.15;;;;;;;17.45;63.57;101163.78;5006547;28;20092;-85
2021/06/11 05:35:01;;;;;;;8.43;4.70;;;;;;;17.51;63.15;101158.31;4998131;28;20069;-86
2021/06/11 05:37:27;;;;;;;9.63;6.53;;;;;;;17.59;63.10;101161.59;4988609;28;20049;-87
2021/06/11 05:39:54;;;;;;;6.30;5.18;;;;;;;17.67;62.80;101156.06;5013280;28;20539;-88
2021/06/11 05:42:20;;;;;;;7.13;4.60;;;;;;;17.73;62.59;101149.72;5013850;28;20053;-87
2021/06/11 05:44:46;;;;;;;5.97;3.78;;;;;;;17.78;62.45;101150.44;4993015;28;20073;-85
2021/06/11 05:47:12;;;;;;;3.70;3.30;;;;;;;17.81;61.92;101155.66;5013362;28;20042;-86
2021/06/11 05:49:39;;;;;;;7.50;5.45;;;;;;;17.90;61.82;101159.78;5024699;28;20037;-87
2021/06/11 05:52:06;;;;;;;5.78;4.55;;;;;;;17.97;61.78;101150.75;4998433;28;20049;-87
2021/06/11 05:54:32;;;;;;;11.93;4.55;;;;;;;18.04;61.17;101154.94;4982308;28;20061;-85
2021/06/11 05:57:01;;;;;;;8.07;4.43;;;;;;;18.12;61.26;101155.56;4992819;28;20415;-84
2021/06/11 05:59:27;;;;;;;6.43;4.38;;;;;;;18.22;61.01;101155.28;4997431;28;20053;-86
2021/06/11 06:01:56;;;;;;;6.40;3.80;;;;;;;18.30;60.82;101158.53;4996189;28;20038;-87
2021/06/11 06:04:22;;;;;;;5.32;3.45;;;;;;;18.42;60.62;101158.13;5029778;28;20046;-85
2021/06/11 06:06:49;;;;;;;4.28;3.88;;;;;;;18.51;59.95;101154.28;4983322;28;20045;-86
2021/06/11 06:09:16;;;;;;;6.45;3.97;;;;;;;18.60;59.98;101150.44;4993709;28;20041;-85
2021/06/11 06:11:43;;;;;;;6.53;4.43;;;;;;;18.71;59.75;101158.91;5026951;28;20144;-86
2021/06/11 06:14:09;;;;;;;7.13;4.20;;;;;;;18.80;59.00;101153.28;5023612;28;20095;-86
2021/06/11 06:16:38;;;;;;;5.30;4.32;;;;;;;18.85;58.97;101153.97;5011077;28;23123;-87
2021/06/11 06:19:05;;;;;;;6.10;3.88;;;;;;;18.95;58.90;101151.03;5014353;28;20069;-88
2021/06/11 06:21:32;;;;;;;8.27;4.63;;;;;;;19.04;58.65;101152.50;5003056;28;20049;-86
2021/06/11 06:23:59;;;;;;;6.38;3.92;;;;;;;19.13;58.09;101157.47;5014917;28;20085;-87
2021/06/11 06:26:28;;;;;;;6.45;4.60;;;;;;;19.22;57.77;101146.50;4998612;28;20041;-88
2021/06/11 06:28:55;;;;;;;11.70;4.60;;;;;;;19.30;57.03;101149.72;4997161;28;20511;-86
2021/06/11 06:31:22;;;;;;;4.85;3.78;;;;;;;19.38;56.40;101149.44;5015256;28;20045;-86
2021/06/11 06:33:49;;;;;;;7.00;4.63;;;;;;;19.46;55.94;101146.50;5010875;28;20049;-87
2021/06/11 06:36:18;;;;;;;9.90;6.43;;;;;;;19.56;55.49;101147.00;5017581;28;20085;-86
2021/06/11 06:38:45;;;;;;;4.97;4.10;;;;;;;19.68;55.51;101146.53;4977027;28;20484;-87
2021/06/11 06:41:11;;;;;;;6.28;4.50;;;;;;;19.79;54.72;101141.66;5018769;28;20042;-87
2021/06/11 06:43:37;;;;;;;4.90;4.50;;;;;;;19.89;54.75;101149.28;4999888;28;20064;-88
2021/06/11 06:46:05;;;;;;;5.18;4.05;;;;;;;19.99;54.36;101148.00;5028352;28;20083;-87
2021/06/11 06:48:32;;;;;;;7.35;3.90;;;;;;;20.11;53.63;101141.31;5003844;28;20069;-86
2021/06/11 06:50:59;;;;;;;4.10;3.70;;;;;;;20.19;53.09;101141.00;5026824;28;20053;-84
2021/06/11 06:53:27;;;;;;;7.32;3.35;;;;;;;20.23;52.82;101139.94;5019194;28;20520;-86
2021/06/11 06:55:57;;;;;;;4.28;3.50;;;;;;;20.30;52.92;101144.94;5002115;28;20409;-84
2021/06/11 06:58:29;;;;;;;7.10;3.58;;;;;;;20.40;53.17;101137.44;5010900;28;20499;-87
2021/06/11 07:01:08;;;;;;;4.65;3.90;;;;;;;20.52;52.90;101145.81;5027509;28;20037;-88
2021/06/11 07:03:42;;;;;;;3.45;3.05;;;;;;;20.62;52.94;101141.81;5010632;28;20132;-87
2021/06/11 07:06:17;;;;;;;4.68;3.20;;;;;;;20.72;53.05;101142.34;5013692;28;20054;-86
2021/06/11 07:08:46;;;;;;;2.92;2.60;;;;;;;20.84;52.76;101141.78;5013196;28;20060;-85
2021/06/11 07:11:13;;;;;;;3.92;2.65;;;;;;;20.98;52.67;101150.00;4994469;28;20638;-86
2021/06/11 07:13:50;;;;;;;2.22;2.03;;;;;;;21.07;52.66;101146.09;4992611;28;20077;-85
2021/06/11 07:16:26;;;;;;;2.58;2.47;;;;;;;21.17;52.39;101151.00;5043583;28;20389;-86
2021/06/11 07:18:58;;;;;;;2.95;2.70;;;;;;;21.25;52.29;101146.16;5023747;28;20113;-87
2021/06/11 07:21:28;;;;;;;2.15;2.05;;;;;;;21.44;51.69;101141.72;5005041;28;20045;-86
2021/06/11 07:24:40;;;;;;;5.93;3.05;;;;;;;21.68;49.70;101138.88;5042773;28;20067;-85
2021/06/11 07:27:44;;;;;;;3.70;2.42;;;;;;;22.07;49.44;101139.66;5021700;28;20065;-87
2021/06/11 07:30:59;;;;;;;3.25;2.42;;;;;;;22.83;47.81;101138.50;5038197;28;20041;-86
2021/06/11 07:33:47;;;;;;;;;;;;;;;23.46;46.57;101132.47;5018664;28;20061;-87
2021/06/11 07:39:18;;;;;;;3.38;2.65;;;;;;;24.96;43.08;101136.31;4982816;28;20084;-85
2021/06/11 07:41:54;;;;;;;3.53;2.40;;;;;;;25.55;40.64;101136.19;5012878;28;20927;-87
2021/06/11 07:44:29;;;;;;;4.97;2.50;;;;;;;26.00;40.00;101138.63;4991662;28;20056;-84
2021/06/11 07:47:18;;;;;;;2.95;2.63;;;;;;;26.54;38.79;101126.97;4995870;28;20046;-85
2021/06/11 07:49:52;;;;;;;2.70;2.60;;;;;;;27.02;38.32;101132.59;5003843;28;20068;-88
2021/06/11 07:52:20;;;;;;;2.85;2.42;;;;;;;27.50;38.00;101131.88;4999140;28;20095;-87
2021/06/11 07:54:47;;;;;;;3.28;2.40;;;;;;;28.08;36.72;101135.75;4981155;28;20116;-86
2021/06/11 07:57:14;;;;;;;107.15;14.27;;;;;;;28.67;35.48;101135.72;5026843;28;20054;-86
2021/06/11 07:59:52;;;;;;;3.53;2.30;;;;;;;29.06;32.95;101138.09;5006602;28;20053;-84
2021/06/11 08:02:27;;;;;;;2.72;2.47;;;;;;;29.24;32.96;101134.88;5014456;28;20042;-83
2021/06/11 08:04:59;;;;;;;2.78;2.58;;;;;;;29.45;32.86;101141.28;5000383;28;20056;-86
2021/06/11 08:07:36;;;;;;;2.45;2.25;;;;;;;29.57;33.08;101136.72;5001363;28;20042;-87
2021/06/11 08:10:09;;;;;;;1.73;1.63;;;;;;;29.93;32.93;101140.06;5000124;28;20146;-85
2021/06/11 08:12:36;;;;;;;3.92;2.80;;;;;;;30.19;31.82;101148.69;4985657;28;20050;-86
2021/06/11 08:15:06;;;;;;;4.47;3.03;;;;;;;30.20;31.82;101147.69;5018156;28;20054;-87
2021/06/11 08:17:32;;;;;;;2.78;2.58;;;;;;;30.13;31.65;101148.31;4990714;28;20057;-87
2021/06/11 08:20:01;;;;;;;2.42;2.33;;;;;;;30.15;31.12;101149.91;4975075;28;20052;-87
2021/06/11 08:22:28;;;;;;;3.30;2.70;;;;;;;30.30;31.01;101152.31;5005364;28;20054;-84
2021/06/11 08:24:53;;;;;;;3.67;3.47;;;;;;;30.51;29.58;101147.81;4991332;28;20105;-86
2021/06/11 08:27:20;;;;;;;3.38;3.13;;;;;;;30.10;30.59;101141.34;5021755;28;20045;-87
2021/06/11 08:29:48;;;;;;;3.08;2.75;;;;;;;29.79;31.22;101138.50;4988542;28;20038;-84
2021/06/11 08:32:15;;;;;;;7.00;3.05;;;;;;;30.19;30.51;101132.50;5006103;28;20508;-85
2021/06/11 08:34:47;;;;;;;3.40;3.10;;;;;;;30.49;30.54;101135.41;5001998;28;20046;-87
2021/06/11 08:37:13;;;;;;;5.30;4.22;;;;;;;30.59;30.17;101133.63;4980737;28;20912;-84
2021/06/11 08:39:39;;;;;;;3.70;3.28;;;;;;;30.89;30.16;101136.50;5019337;28;20563;-85
2021/06/11 08:42:08;;;;;;;3.55;3.35;;;;;;;31.14;29.51;101133.34;4993645;28;20045;-85
2021/06/11 08:44:36;;;;;;;3.55;3.15;;;;;;;30.95;29.85;101142.22;5006104;28;20092;-83
2021/06/11 08:47:08;;;;;;;3.50;3.30;;;;;;;30.98;29.76;101143.81;5027892;28;20781;-87
2021/06/11 08:49:36;;;;;;;3.45;3.25;;;;;;;30.99;30.12;101149.06;5024024;28;20109;-86
2021/06/11 08:52:03;;;;;;;3.60;3.33;;;;;;;31.21;30.54;101147.22;5022018;28;20060;-84
2021/06/11 08:54:32;;;;;;;5.20;3.72;;;;;;;31.51;29.35;101154.41;5025733;28;20060;-87
2021/06/11 08:56:59;;;;;;;3.85;3.55;;;;;;;31.27;30.04;101143.09;5019725;28;20053;-87
2021/06/11 08:59:27;;;;;;;9.13;7.53;;;;;;;31.47;29.65;101152.97;4991115;28;20144;-85
2021/06/11 09:01:55;;;;;;;7.20;6.10;;;;;;;31.91;29.48;101151.78;5006547;28;20416;-86
2021/06/11 09:04:42;;;;;;;5.53;3.58;;;;;;;32.37;29.06;101152.94;5007441;28;20148;-87
2021/06/11 09:07:29;;;;;;;4.50;4.13;;;;;;;32.64;28.72;101151.34;5006251;28;20048;-87
2021/06/11 09:10:07;;;;;;;6.63;4.70;;;;;;;32.86;28.20;101158.28;5018445;28;20045;-85
2021/06/11 09:12:42;;;;;;;5.00;4.28;;;;;;;33.00;27.09;101162.41;5023681;28;20064;-86
2021/06/11 09:15:18;;;;;;;4.22;3.38;;;;;;;32.94;27.48;101165.69;5006399;28;20045;-86
2021/06/11 09:17:53;;;;;;;4.20;3.90;;;;;;;33.61;27.18;101162.81;5040662;28;20361;-87
2021/06/11 09:20:23;;;;;;;4.30;4.03;;;;;;;34.05;25.60;101165.66;5006992;28;20081;-87
2021/06/11 09:22:59;;;;;;;3.55;3.42;;;;;;;34.48;25.20;101163.16;4996787;28;20754;-87
2021/06/11 09:25:28;;;;;;;4.13;3.83;;;;;;;34.91;25.00;101155.16;5033354;28;20120;-85
2021/06/11 09:28:01;;;;;;;4.47;3.55;;;;;;;35.46;24.41;101162.03;5013963;28;20555;-84
2021/06/11 09:30:39;;;;;;;4.38;3.90;;;;;;;35.50;23.96;101168.00;5027705;28;20053;-88
2021/06/11 09:33:19;;;;;;;5.47;4.18;;;;;;;35.48;23.85;101165.47;5022905;28;20569;-86
2021/06/11 09:35:55;;;;;;;4.93;4.43;;;;;;;35.21;23.08;101172.81;5014369;28;20053;-85
2021/06/11 09:38:29;;;;;;;5.25;4.75;;;;;;;35.23;23.60;101168.06;5012204;28;20096;-88
2021/06/11 09:41:02;;;;;;;5.47;4.80;;;;;;;35.41;23.91;101154.38;4990721;28;20061;-86
2021/06/11 09:43:31;;;;;;;4.72;4.35;;;;;;;35.81;24.17;101151.91;4998480;28;20499;-84
2021/06/11 09:46:11;;;;;;;4.68;4.32;;;;;;;36.36;23.13;101161.38;5026793;28;20045;-88
2021/06/11 09:48:49;;;;;;;5.32;4.93;;;;;;;36.20;23.62;101170.38;4983777;28;21915;-86
2021/06/11 09:51:23;;;;;;;5.95;5.47;;;;;;;35.76;24.36;101163.31;4982907;28;20053;-87
2021/06/11 09:53:53;;;;;;;3.95;3.75;;;;;;;35.51;25.04;101156.09;4997068;28;20519;-86
2021/06/11 09:56:30;;;;;;;5.25;4.53;;;;;;;35.79;23.87;101162.13;5035150;28;20056;-86
2021/06/11 09:59:01;;;;;;;6.32;3.90;;;;;;;36.30;23.54;101163.88;5009913;28;20060;-83
2021/06/11 10:01:28;;;;;;;5.85;5.40;;;;;;;35.61;23.24;101171.28;4996584;28;20094;-85
2021/06/11 10:03:57;;;;;;;5.70;5.20;;;;;;;34.91;24.30;101166.88;4977778;28;20428;-86
2021/06/11 10:06:27;;;;;;;3.85;3.55;;;;;;;34.68;25.06;101171.13;5027366;28;20045;-88
2021/06/11 10:08:54;;;;;;;4.93;4.47;;;;;;;35.70;23.95;101171.31;4995542;28;20038;-85
2021/06/11 10:11:25;;;;;;;7.88;4.78;;;;;;;36.14;22.65;101172.91;5009692;28;20135;-86
2021/06/11 10:14:03;;;;;;;5.80;4.47;;;;;;;36.43;22.04;101162.38;4996895;28;20100;-85
2021/06/11 10:16:45;;;;;;;6.07;5.57;;;;;;;35.88;22.60;101163.88;4985356;28;20100;-86
2021/06/11 10:19:14;;;;;;;5.22;4.00;;;;;;;35.88;22.84;101166.59;5013387;28;20041;-88
2021/06/11 10:21:41;;;;;;;4.53;4.20;;;;;;;36.64;22.15;101163.72;5011642;28;20045;-88
2021/06/11 10:24:12;;;;;;;6.40;5.68;;;;;;;37.02;22.06;101158.53;5014437;28;20071;-85
2021/06/11 10:26:44;;;;;;;5.15;4.60;;;;;;;37.25;22.05;101165.97;4993923;28;20049;-84
2021/06/11 10:29:19;;;;;;;5.60;5.05;;;;;;;37.07;21.99;101158.84;5003606;28;20049;-88
2021/06/11 10:32:02;;;;;;;4.18;3.88;;;;;;;37.67;21.63;101155.69;4998493;28;20076;-86
2021/06/11 10:34:56;;;;;;;5.35;4.95;;;;;;;38.23;20.52;101159.03;5016064;28;20057;-85
2021/06/11 10:37:41;;;;;;;4.80;4.40;;;;;;;38.79;19.87;101157.03;5002033;28;20504;-85
2021/06/11 10:40:42;;;;;;;5.80;4.53;;;;;;;39.51;18.87;101164.50;5002971;28;20038;-86
2021/06/11 10:43:38;;;;;;;4.65;4.15;;;;;;;40.09;18.44;101155.47;4998411;28;20069;-86
2021/06/11 10:46:33;;;;;;;5.90;4.60;;;;;;;40.67;17.88;101158.03;5024674;28;20046;-86
2021/06/11 10:51:52;;;;;;;5.05;4.57;;;;;;;38.58;19.46;101152.25;5020749;28;20077;-89
2021/06/11 10:54:29;;;;;;;5.10;4.68;;;;;;;37.88;20.76;101158.63;5038131;28;20084;-91
2021/06/11 10:57:01;;;;;;;5.28;4.82;;;;;;;38.30;20.38;101153.69;5019329;28;20057;-92
2021/06/11 11:02:58;;;;;;;3.95;3.65;;;;;;;38.82;19.68;101151.16;5029520;28;20045;-90
2021/06/11 11:05:44;;;;;;;3.55;3.25;;;;;;;39.48;18.49;101140.25;5002295;28;20049;-89
2021/06/11 11:11:00;;;;;;;3.90;3.60;;;;;;;38.36;19.97;101141.19;5019080;28;20105;-90
2021/06/11 11:13:30;;;;;;;4.28;3.97;;;;;;;39.00;19.04;101135.19;5019020;28;20125;-92
2021/06/11 11:15:58;;;;;;;8.63;4.82;;;;;;;39.63;18.72;101123.78;5009692;28;20081;-90
2021/06/11 11:18:38;;;;;;;4.47;4.15;;;;;;;39.61;18.63;101122.22;5022344;28;20064;-94
2021/06/11 11:21:36;;;;;;;4.80;4.50;;;;;;;39.66;18.59;101126.13;5041007;28;20037;-94
2021/06/11 11:27:15;;;;;;;4.03;3.42;;;;;;;39.32;18.97;101127.63;5004983;28;19925;-91
2021/06/11 11:29:48;;;;;;;3.05;2.85;;;;;;;39.31;19.52;101119.59;5021482;28;20049;-88
2021/06/11 11:32:18;;;;;;;2.97;2.78;;;;;;;39.86;18.56;101117.25;5047256;28;21458;-89
2021/06/11 11:34:47;;;;;;;3.03;2.80;;;;;;;40.58;18.43;101117.25;5056731;28;20105;-90
2021/06/11 11:41:21;;;;;;;4.25;2.88;;;;;;;37.67;20.54;101125.66;5028581;28;20064;-89
2021/06/11 11:56:41;;;;;;;3.08;2.90;;;;;;;36.86;21.82;101118.50;5047837;28;20052;-89
2021/06/11 12:12:43;;;;;;;3.47;3.15;;;;;;;41.15;17.69;101115.22;5005137;28;21509;-91
2021/06/11 12:22:27;;;;;;;2.03;1.92;;;;;;;41.94;16.89;101107.38;5034507;28;20064;-92
2021/06/11 12:25:45;;;;;;;1.80;1.70;;;;;;;41.64;17.09;101105.00;4985065;28;20042;-90
2021/06/11 12:31:16;;;;;;;1.75;1.70;;;;;;;41.29;17.47;101099.63;5023837;28;20127;-91
2021/06/11 12:34:05;;;;;;;1.90;1.80;;;;;;;41.84;17.11;101099.56;5061220;28;20060;-90
2021/06/11 12:57:05;;;;;;;2.13;1.35;;;;;;;40.40;18.38;101076.56;4956571;28;20058;-92
2021/06/11 13:02:55;;;;;;;3.33;1.25;;;;;;;42.51;16.22;101076.66;5017951;28;20055;-90
2021/06/11 13:08:58;;;;;;;3.03;1.92;;;;;;;43.33;15.25;101073.38;5028794;28;20114;-89
2021/06/11 13:11:46;;;;;;;1.98;1.17;;;;;;;41.95;16.72;101073.34;5035035;28;20064;-94
2021/06/11 13:14:56;;;;;;;4.72;1.63;;;;;;;40.36;18.33;101076.13;5057756;28;20076;-90